Time,TemperatureF,DewpointF,PressureIn,WindDirection,WindDirectionDegrees,WindSpeedMPH,WindSpeedGustMPH,Humidity,HourlyPrecipIn,Conditions,Clouds,dailyrainin,SolarRadiationWatts/m^2,SoftwareType,DateUTC
2013-03-29 00:02:00,27.9,24.3,29.86,NE,43,10.4,10.4,86,0.00,OVC,,0.00,0.0,WeatherDisplay:10.37,2013-03-29 08:02:00,
2013-03-29 00:07:00,28.0,24.4,29.85,ENE,62,11.5,11.5,86,0.00,OVC,,0.00,0.0,WeatherDisplay:10.37,2013-03-29 08:07:00,
2013-03-29 00:12:00,28.0,24.4,29.85,ENE,78,12.7,12.7,86,0.00,OVC,,0.00,0.0,WeatherDisplay:10.37,2013-03-29 08:12:00,
2013-03-29 00:17:00,28.1,24.5,29.85,ENE,65,9.2,9.2,86,0.00,OVC,,0.00,0.0,WeatherDisplay:10.37,2013-03-29 08:17:00,
2013-03-29 00:22:00,28.1,24.5,29.85,East,96,11.5,11.5,86,0.00,OVC,,0.00,0.0,WeatherDisplay:10.37,2013-03-29 08:22:00,
2013-03-29 00:27:00,28.2,24.6,29.85,ENE,69,10.4,10.4,86,0.00,OVC,,0.00,0.0,WeatherDisplay:10.37,2013-03-29 08:27:00,
2013-03-29 00:32:00,28.3,24.6,29.85,ENE,74,11.0,11.0,86,0.00,OVC,,0.00,0.0,WeatherDisplay:10.37,2013-03-29 08:32:00,
2013-03-29 00:37:00,28.3,24.6,29.85,ENE,59,9.2,9.2,86,0.00,OVC,,0.00,0.0,WeatherDisplay:10.37,2013-03-29 08:37:00,
2013-03-29 00:42:00,28.4,24.7,29.85,ENE,74,9.2,9.2,86,0.00,OVC,,0.00,0.0,WeatherDisplay:10.37,2013-03-29 08:42:00,
2013-03-29 00:47:00,28.4,24.7,29.85,East,94,6.9,6.9,86,0.00,OVC,,0.00,0.0,WeatherDisplay:10.37,2013-03-29 08:47:00,
2013-03-29 00:52:00,28.5,24.8,29.85,East,94,9.2,9.2,86,0.00,OVC,,0.00,0.0,WeatherDisplay:10.37,2013-03-29 08:52:00,
2013-03-29 00:57:00,28.6,24.9,29.85,East,88,11.5,11.5,86,0.00,OVC,,0.00,0.0,WeatherDisplay:10.37,2013-03-29 08:57:00,
2013-03-29 01:02:00,28.7,25.0,29.85,East,96,10.4,10.4,86,0.00,OVC,,0.00,0.0,WeatherDisplay:10.37,2013-03-29 09:02:00,
2013-03-29 01:07:00,28.7,24.8,29.85,NNE,22,10.4,10.4,85,0.00,OVC,,0.00,0.0,WeatherDisplay:10.37,2013-03-29 09:07:00,
2013-03-29 01:12:00,28.8,25.1,29.85,East,94,11.5,11.5,86,0.00,OVC,,0.00,0.0,WeatherDisplay:10.37,2013-03-29 09:12:00,
2013-03-29 01:17:00,28.9,25.0,29.85,NNE,32,15.0,15.0,85,0.00,OVC,,0.00,0.0,WeatherDisplay:10.37,2013-03-29 09:17:00,
2013-03-29 01:22:00,28.9,25.0,29.86,ENE,60,13.8,13.8,85,0.00,OVC,,0.00,0.0,WeatherDisplay:10.37,2013-03-29 09:22:00,
2013-03-29 01:27:00,28.9,25.0,29.86,East,84,10.0,10.0,85,0.00,OVC,,0.00,0.0,WeatherDisplay:10.37,2013-03-29 09:27:00,
2013-03-29 01:32:00,29.0,25.1,29.85,East,79,11.5,11.5,85,0.00,OVC,,0.00,0.0,WeatherDisplay:10.37,2013-03-29 09:32:00,
2013-03-29 01:37:00,29.0,25.1,29.85,East,82,11.5,11.5,85,0.00,OVC,,0.00,0.0,WeatherDisplay:10.37,2013-03-29 09:37:00,
2013-03-29 01:42:00,29.0,25.1,29.85,ENE,65,8.1,8.1,85,0.00,OVC,,0.00,0.0,WeatherDisplay:10.37,2013-03-29 09:42:00,
2013-03-29 01:47:00,29.1,25.2,29.86,East,88,8.0,8.0,85,0.00,OVC,,0.00,0.0,WeatherDisplay:10.37,2013-03-29 09:47:00,
2013-03-29 01:52:00,29.1,25.2,29.86,East,90,9.2,9.2,85,0.00,OVC,,0.00,0.0,WeatherDisplay:10.37,2013-03-29 09:52:00,
2013-03-29 01:57:00,29.1,25.2,29.85,NNE,20,8.1,8.1,85,0.00,OVC,,0.00,0.0,WeatherDisplay:10.37,2013-03-29 09:57:00,
2013-03-29 02:02:00,29.1,25.2,29.85,East,80,11.5,11.5,85,0.00,OVC,,0.00,0.0,WeatherDisplay:10.37,2013-03-29 10:02:00,
2013-03-29 02:07:00,29.0,25.1,29.85,NE,48,10.4,10.4,85,0.00,OVC,,0.00,0.0,WeatherDisplay:10.37,2013-03-29 10:07:00,
2013-03-29 02:12:00,29.1,25.2,29.85,ENE,69,11.5,11.5,85,0.00,OVC,,0.00,0.0,WeatherDisplay:10.37,2013-03-29 10:12:00,
2013-03-29 02:17:00,29.0,25.1,29.85,ENE,72,13.0,13.0,85,0.00,OVC,,0.00,0.0,WeatherDisplay:10.37,2013-03-29 10:17:00,
2013-03-29 02:22:00,29.0,25.1,29.85,NE,43,12.7,12.7,85,0.00,OVC,,0.00,0.0,WeatherDisplay:10.37,2013-03-29 10:22:00,
2013-03-29 02:27:00,29.0,25.1,29.85,East,80,9.2,9.2,85,0.00,OVC,,0.00,0.0,WeatherDisplay:10.37,2013-03-29 10:27:00,
2013-03-29 02:32:00,28.9,25.0,29.85,East,83,10.4,10.4,85,0.00,OVC,,0.00,0.0,WeatherDisplay:10.37,2013-03-29 10:32:00,
2013-03-29 02:37:00,28.8,24.9,29.85,East,88,11.5,11.5,85,0.00,OVC,,0.00,0.0,WeatherDisplay:10.37,2013-03-29 10:37:00,
2013-03-29 02:42:00,28.8,24.9,29.85,ENE,66,10.4,10.4,85,0.00,OVC,,0.00,0.0,WeatherDisplay:10.37,2013-03-29 10:42:00,
2013-03-29 02:47:00,28.7,24.8,29.85,NE,53,13.0,13.0,85,0.00,OVC,,0.00,0.0,WeatherDisplay:10.37,2013-03-29 10:47:00,
2013-03-29 02:52:00,28.7,24.8,29.85,East,80,9.2,9.2,85,0.00,OVC,,0.00,0.0,WeatherDisplay:10.37,2013-03-29 10:52:00,
2013-03-29 02:57:00,28.7,25.0,29.85,NE,38,16.1,16.1,86,0.00,OVC,,0.00,0.0,WeatherDisplay:10.37,2013-03-29 10:57:00,
2013-03-29 03:02:00,28.7,25.0,29.85,ENE,76,11.5,11.5,86,0.00,OVC,,0.00,0.0,WeatherDisplay:10.37,2013-03-29 11:02:00,
2013-03-29 03:07:00,28.8,25.1,29.85,ENE,57,8.1,8.1,86,0.00,OVC,,0.00,0.0,WeatherDisplay:10.37,2013-03-29 11:07:00,
2013-03-29 03:12:00,28.8,25.1,29.85,East,85,10.4,10.4,86,0.00,OVC,,0.00,0.0,WeatherDisplay:10.37,2013-03-29 11:12:00,
2013-03-29 03:17:00,28.8,25.1,29.85,NE,53,11.5,11.5,86,0.00,OVC,,0.00,0.0,WeatherDisplay:10.37,2013-03-29 11:17:00,
2013-03-29 03:22:00,28.8,25.1,29.84,NE,38,10.4,10.4,86,0.00,OVC,,0.00,0.0,WeatherDisplay:10.37,2013-03-29 11:22:00,
2013-03-29 03:27:00,28.8,25.1,29.84,ENE,65,11.5,11.5,86,0.00,OVC,,0.00,0.0,WeatherDisplay:10.37,2013-03-29 11:27:00,
2013-03-29 03:32:00,28.8,25.1,29.84,NE,46,12.7,12.7,86,0.00,OVC,,0.00,0.0,WeatherDisplay:10.37,2013-03-29 11:32:00,
2013-03-29 03:40:00,28.7,25.0,29.84,NE,55,11.5,11.5,86,0.00,CLR,,0.00,0.0,WeatherDisplay:10.37,2013-03-29 11:40:00,
2013-03-29 03:45:00,28.7,25.3,29.84,East,96,6.0,6.0,87,0.00,OVC,,0.00,0.0,WeatherDisplay:10.37,2013-03-29 11:45:00,
2013-03-29 03:50:00,28.6,24.9,29.84,ENE,61,11.5,11.5,86,0.00,OVC,,0.00,0.0,WeatherDisplay:10.37,2013-03-29 11:50:00,
2013-03-29 03:55:00,28.7,25.0,29.84,ENE,57,15.0,15.0,86,0.00,OVC,,0.00,0.0,WeatherDisplay:10.37,2013-03-29 11:55:00,
2013-03-29 04:00:00,28.7,25.3,29.84,East,100,14.0,14.0,87,0.00,OVC,,0.00,0.0,WeatherDisplay:10.37,2013-03-29 12:00:00,
2013-03-29 04:05:00,28.7,25.0,29.84,East,82,11.5,11.5,86,0.00,OVC,,0.00,0.0,WeatherDisplay:10.37,2013-03-29 12:05:00,
2013-03-29 04:10:00,28.7,25.0,29.84,East,93,12.7,12.7,86,0.00,OVC,,0.00,0.0,WeatherDisplay:10.37,2013-03-29 12:10:00,
2013-03-29 04:15:00,28.7,25.0,29.84,ENE,58,13.8,13.8,86,0.00,OVC,,0.00,0.0,WeatherDisplay:10.37,2013-03-29 12:15:00,
2013-03-29 04:20:00,28.8,25.1,29.84,NE,56,11.5,11.5,86,0.00,OVC,,0.00,0.0,WeatherDisplay:10.37,2013-03-29 12:20:00,
2013-03-29 04:25:00,28.8,25.1,29.84,ENE,60,8.1,8.1,86,0.00,OVC,,0.00,0.0,WeatherDisplay:10.37,2013-03-29 12:25:00,
2013-03-29 04:30:00,28.8,25.1,29.83,ENE,69,16.1,16.1,86,0.00,OVC,,0.00,0.0,WeatherDisplay:10.37,2013-03-29 12:30:00,
2013-03-29 04:35:00,28.8,25.1,29.83,NNE,26,11.5,11.5,86,0.00,OVC,,0.00,0.0,WeatherDisplay:10.37,2013-03-29 12:35:00,
2013-03-29 04:40:00,28.8,25.1,29.83,ENE,64,9.2,9.2,86,0.00,OVC,,0.00,0.0,WeatherDisplay:10.37,2013-03-29 12:40:00,
2013-03-29 04:45:00,28.8,25.1,29.83,NE,55,10.4,10.4,86,0.00,OVC,,0.00,0.0,WeatherDisplay:10.37,2013-03-29 12:45:00,
2013-03-29 04:50:00,28.9,25.2,29.83,ENE,73,4.6,5.4,86,0.00,OVC,,0.00,0.0,WeatherDisplay:10.37,2013-03-29 12:50:00,
2013-03-29 04:55:00,28.9,25.2,29.83,ENE,77,10.4,10.4,86,0.00,OVC,,0.00,0.0,WeatherDisplay:10.37,2013-03-29 12:55:00,
2013-03-29 05:01:00,29.0,25.3,29.83,East,82,13.8,13.8,86,0.00,OVC,,0.00,0.0,WeatherDisplay:10.37,2013-03-29 13:01:00,
2013-03-29 05:06:00,29.1,25.4,29.83,ENE,67,9.2,9.2,86,0.00,OVC,,0.00,0.0,WeatherDisplay:10.37,2013-03-29 13:06:00,
2013-03-29 05:11:00,29.1,25.4,29.83,NE,49,12.7,12.7,86,0.00,OVC,,0.00,0.0,WeatherDisplay:10.37,2013-03-29 13:11:00,
2013-03-29 05:16:00,29.2,25.5,29.83,ENE,76,9.2,9.2,86,0.00,OVC,,0.00,0.0,WeatherDisplay:10.37,2013-03-29 13:16:00,
2013-03-29 05:21:00,29.2,25.5,29.83,East,81,11.5,11.5,86,0.00,OVC,,0.00,0.0,WeatherDisplay:10.37,2013-03-29 13:21:00,
2013-03-29 05:26:00,29.3,25.6,29.83,East,79,6.9,7.1,86,0.00,OVC,,0.00,0.0,WeatherDisplay:10.37,2013-03-29 13:26:00,
2013-03-29 05:31:00,29.4,25.7,29.83,ENE,63,11.5,11.5,86,0.00,OVC,,0.00,0.0,WeatherDisplay:10.37,2013-03-29 13:31:00,
2013-03-29 05:36:00,29.4,25.7,29.83,NE,44,12.7,12.7,86,0.00,OVC,,0.00,0.0,WeatherDisplay:10.37,2013-03-29 13:36:00,
2013-03-29 05:41:00,29.5,25.8,29.83,ENE,61,12.7,12.7,86,0.00,OVC,,0.00,0.0,WeatherDisplay:10.37,2013-03-29 13:41:00,
2013-03-29 05:46:00,29.5,25.8,29.82,ENE,77,8.1,8.1,86,0.00,OVC,,0.00,0.0,WeatherDisplay:10.37,2013-03-29 13:46:00,
2013-03-29 05:51:00,29.6,25.9,29.83,NE,51,11.5,11.5,86,0.00,OVC,,0.00,0.0,WeatherDisplay:10.37,2013-03-29 13:51:00,
2013-03-29 05:56:00,29.6,25.9,29.82,NE,49,11.5,11.5,86,0.00,OVC,,0.00,0.0,WeatherDisplay:10.37,2013-03-29 13:56:00,
2013-03-29 06:01:00,29.6,25.9,29.82,East,88,12.7,12.7,86,0.00,OVC,,0.00,0.0,WeatherDisplay:10.37,2013-03-29 14:01:00,
2013-03-29 06:06:00,29.7,26.0,29.82,NE,38,11.5,11.5,86,0.00,OVC,,0.00,0.0,WeatherDisplay:10.37,2013-03-29 14:06:00,
2013-03-29 06:14:00,29.7,25.7,29.82,NE,42,13.8,13.8,85,0.00,OVC,,0.00,0.0,WeatherDisplay:10.37,2013-03-29 14:14:00,
2013-03-29 06:19:00,29.7,25.7,29.82,East,82,10.4,10.4,85,0.00,OVC,,0.00,0.0,WeatherDisplay:10.37,2013-03-29 14:19:00,
2013-03-29 06:24:00,29.7,25.7,29.82,East,94,9.2,9.2,85,0.00,OVC,,0.00,0.0,WeatherDisplay:10.37,2013-03-29 14:24:00,
2013-03-29 06:29:00,29.8,25.8,29.83,NE,40,10.4,10.4,85,0.00,OVC,,0.00,0.0,WeatherDisplay:10.37,2013-03-29 14:29:00,
2013-03-29 06:34:00,29.7,25.7,29.83,ENE,76,5.0,6.5,85,0.00,OVC,,0.00,0.0,WeatherDisplay:10.37,2013-03-29 14:34:00,
2013-03-29 06:39:00,29.8,25.8,29.83,NE,49,5.8,5.8,85,0.00,OVC,,0.00,0.0,WeatherDisplay:10.37,2013-03-29 14:39:00,
2013-03-29 06:44:00,29.7,25.7,29.83,NE,45,11.5,11.5,85,0.00,OVC,,0.00,0.0,WeatherDisplay:10.37,2013-03-29 14:44:00,
2013-03-29 06:49:00,29.7,25.7,29.82,East,79,6.9,6.9,85,0.00,OVC,,0.00,0.0,WeatherDisplay:10.37,2013-03-29 14:49:00,
2013-03-29 06:54:00,29.7,25.7,29.83,East,84,11.5,11.5,85,0.00,OVC,,0.00,0.0,WeatherDisplay:10.37,2013-03-29 14:54:00,
2013-03-29 06:59:00,29.6,25.6,29.83,NE,42,13.0,13.0,85,0.00,OVC,,0.00,0.0,WeatherDisplay:10.37,2013-03-29 14:59:00,
2013-03-29 07:04:00,29.6,25.6,29.83,ENE,75,9.2,9.2,85,0.00,OVC,,0.00,0.0,WeatherDisplay:10.37,2013-03-29 15:04:00,
2013-03-29 07:09:00,29.6,25.6,29.83,ENE,69,15.0,15.0,85,0.00,OVC,,0.00,0.0,WeatherDisplay:10.37,2013-03-29 15:09:00,
2013-03-29 07:14:00,29.6,25.6,29.83,NE,46,9.2,9.2,85,0.00,OVC,,0.00,0.0,WeatherDisplay:10.37,2013-03-29 15:14:00,
2013-03-29 07:19:00,29.6,25.6,29.83,East,87,13.8,13.8,85,0.00,OVC,,0.00,0.0,WeatherDisplay:10.37,2013-03-29 15:19:00,
2013-03-29 07:24:00,29.6,25.6,29.83,North,5,11.5,11.5,85,0.00,OVC,,0.00,0.0,WeatherDisplay:10.37,2013-03-29 15:24:00,
2013-03-29 07:29:00,29.6,25.6,29.82,NE,53,9.2,9.2,85,0.00,OVC,,0.00,0.0,WeatherDisplay:10.37,2013-03-29 15:29:00,
2013-03-29 07:34:00,29.6,25.6,29.82,East,82,11.5,11.5,85,0.00,OVC,,0.00,0.0,WeatherDisplay:10.37,2013-03-29 15:34:00,
2013-03-29 07:39:00,29.6,25.6,29.82,ENE,76,11.5,11.5,85,0.00,OVC,,0.00,0.0,WeatherDisplay:10.37,2013-03-29 15:39:00,
2013-03-29 07:44:00,29.7,25.7,29.82,ENE,65,11.5,11.5,85,0.00,OVC,,0.00,0.0,WeatherDisplay:10.37,2013-03-29 15:44:00,
2013-03-29 07:49:00,29.7,25.7,29.82,ENE,64,12.7,12.7,85,0.00,OVC,,0.00,0.0,WeatherDisplay:10.37,2013-03-29 15:49:00,
2013-03-29 07:55:00,29.7,25.7,29.82,NE,42,13.0,13.0,85,0.00,OVC,,0.00,5.0,WeatherDisplay:10.37,2013-03-29 15:55:00,
2013-03-29 08:00:00,29.8,25.8,29.82,ENE,74,11.5,11.5,85,0.00,OVC,,0.00,7.0,WeatherDisplay:10.37,2013-03-29 16:00:00,
2013-03-29 08:05:00,29.9,25.9,29.82,East,94,15.0,15.0,85,0.00,OVC,,0.00,9.0,WeatherDisplay:10.37,2013-03-29 16:05:00,
2013-03-29 08:10:00,29.9,25.9,29.82,NE,46,11.5,11.5,85,0.00,OVC,,0.00,11.0,WeatherDisplay:10.37,2013-03-29 16:10:00,
2013-03-29 08:15:00,30.0,26.0,29.82,NE,55,10.4,10.4,85,0.00,OVC,,0.00,12.0,WeatherDisplay:10.37,2013-03-29 16:15:00,
2013-03-29 08:20:00,30.0,26.0,29.82,NE,40,13.8,13.8,85,0.00,OVC,,0.00,12.0,WeatherDisplay:10.37,2013-03-29 16:20:00,
2013-03-29 08:25:00,30.0,26.0,29.82,NNE,32,16.1,16.1,85,0.00,OVC,,0.00,12.0,WeatherDisplay:10.37,2013-03-29 16:25:00,
2013-03-29 08:30:00,30.1,26.1,29.82,ENE,74,13.8,13.8,85,0.00,OVC,,0.00,14.0,WeatherDisplay:10.37,2013-03-29 16:30:00,
2013-03-29 08:35:00,30.1,26.1,29.82,East,82,11.5,11.5,85,0.00,OVC,,0.00,16.0,WeatherDisplay:10.37,2013-03-29 16:35:00,
2013-03-29 08:40:00,30.2,26.2,29.82,ENE,77,9.2,9.2,85,0.00,OVC,,0.00,25.0,WeatherDisplay:10.37,2013-03-29 16:40:00,
2013-03-29 08:45:00,30.3,26.3,29.82,NE,49,11.5,11.5,85,0.00,OVC,,0.00,28.0,WeatherDisplay:10.37,2013-03-29 16:45:00,
2013-03-29 08:50:00,30.3,26.3,29.82,NE,43,10.4,10.4,85,0.00,OVC,,0.00,26.0,WeatherDisplay:10.37,2013-03-29 16:50:00,
2013-03-29 08:55:00,30.4,26.1,29.82,NE,53,10.4,10.4,84,0.00,OVC,,0.00,32.0,WeatherDisplay:10.37,2013-03-29 16:55:00,
2013-03-29 09:00:00,30.5,26.2,29.82,ENE,59,11.5,11.5,84,0.00,OVC,,0.00,37.0,WeatherDisplay:10.37,2013-03-29 17:00:00,
2013-03-29 09:05:00,30.5,26.2,29.82,NE,36,15.0,15.0,84,0.00,OVC,,0.00,46.0,WeatherDisplay:10.37,2013-03-29 17:05:00,
2013-03-29 09:10:00,30.6,26.3,29.82,East,80,11.5,11.5,84,0.00,OVC,,0.00,47.0,WeatherDisplay:10.37,2013-03-29 17:10:00,
2013-03-29 09:15:00,30.7,26.1,29.82,SE,126,7.0,7.0,83,0.00,OVC,,0.00,46.0,WeatherDisplay:10.37,2013-03-29 17:15:00,
2013-03-29 09:20:00,30.8,26.2,29.82,NE,51,9.2,9.2,83,0.00,OVC,,0.00,58.0,WeatherDisplay:10.37,2013-03-29 17:20:00,
2013-03-29 09:25:00,31.0,26.4,29.82,ENE,78,13.8,13.8,83,0.00,OVC,,0.00,74.0,WeatherDisplay:10.37,2013-03-29 17:25:00,
2013-03-29 09:30:00,31.1,26.5,29.82,NE,39,15.0,15.0,83,0.00,OVC,,0.00,95.0,WeatherDisplay:10.37,2013-03-29 17:30:00,
2013-03-29 09:35:00,31.3,26.4,29.82,NE,56,13.8,13.8,82,0.00,OVC,,0.00,127.0,WeatherDisplay:10.37,2013-03-29 17:35:00,
2013-03-29 09:40:00,31.5,26.6,29.82,NE,38,18.4,18.4,82,0.00,OVC,,0.00,139.0,WeatherDisplay:10.37,2013-03-29 17:40:00,
2013-03-29 09:45:00,31.7,26.8,29.81,NE,46,16.1,16.1,82,0.00,OVC,,0.00,118.0,WeatherDisplay:10.37,2013-03-29 17:45:00,
2013-03-29 09:50:00,31.8,26.6,29.82,NNE,31,11.5,11.5,81,0.00,OVC,,0.00,121.0,WeatherDisplay:10.37,2013-03-29 17:50:00,
2013-03-29 09:55:00,31.9,26.7,29.82,ENE,72,11.5,11.5,81,0.00,OVC,,0.00,130.0,WeatherDisplay:10.37,2013-03-29 17:55:00,
2013-03-29 10:00:00,32.0,26.8,29.82,NNE,21,16.1,16.1,81,0.00,OVC,,0.00,121.0,WeatherDisplay:10.37,2013-03-29 18:00:00,
2013-03-29 10:05:00,32.1,26.6,29.82,NE,51,11.5,11.5,80,0.00,OVC,,0.00,127.0,WeatherDisplay:10.37,2013-03-29 18:05:00,
2013-03-29 10:10:00,32.1,26.6,29.81,ENE,78,17.0,17.0,80,0.00,OVC,,0.00,146.0,WeatherDisplay:10.37,2013-03-29 18:10:00,
2013-03-29 10:15:00,32.2,26.7,29.82,NE,36,20.0,20.0,80,0.00,OVC,,0.00,155.0,WeatherDisplay:10.37,2013-03-29 18:15:00,
2013-03-29 10:20:00,32.3,26.8,29.82,NE,51,17.3,17.3,80,0.00,OVC,,0.00,156.0,WeatherDisplay:10.37,2013-03-29 18:20:00,
2013-03-29 10:25:00,32.4,26.9,29.82,NE,42,13.8,13.8,80,0.00,OVC,,0.00,156.0,WeatherDisplay:10.37,2013-03-29 18:25:00,
2013-03-29 10:30:00,32.5,27.3,29.82,East,87,11.5,11.5,81,0.00,OVC,,0.00,151.0,WeatherDisplay:10.37,2013-03-29 18:30:00,
2013-03-29 10:35:00,32.5,27.3,29.82,NE,34,11.5,11.5,81,0.00,OVC,,0.00,149.0,WeatherDisplay:10.37,2013-03-29 18:35:00,
2013-03-29 10:40:00,32.4,27.5,29.82,North,11,18.4,18.4,82,0.00,OVC,,0.00,155.0,WeatherDisplay:10.37,2013-03-29 18:40:00,
2013-03-29 10:45:00,32.3,27.4,29.82,ENE,62,16.1,16.1,82,0.00,OVC,,0.00,142.0,WeatherDisplay:10.37,2013-03-29 18:45:00,
2013-03-29 10:50:00,32.3,27.7,29.82,NE,44,11.0,11.0,83,0.00,OVC,,0.00,146.0,WeatherDisplay:10.37,2013-03-29 18:50:00,
2013-03-29 10:55:00,32.4,27.8,29.82,NE,45,13.8,13.8,83,0.00,OVC,,0.00,155.0,WeatherDisplay:10.37,2013-03-29 18:55:00,
2013-03-29 11:00:00,32.5,27.9,29.82,ESE,117,13.8,13.8,83,0.00,OVC,,0.00,165.0,WeatherDisplay:10.37,2013-03-29 19:00:00,
2013-03-29 11:05:00,32.6,28.0,29.82,ENE,78,11.5,11.5,83,0.00,OVC,,0.00,174.0,WeatherDisplay:10.37,2013-03-29 19:05:00,
2013-03-29 11:10:00,32.6,28.0,29.82,ESE,103,9.2,9.2,83,0.00,OVC,,0.00,213.0,WeatherDisplay:10.37,2013-03-29 19:10:00,
2013-03-29 11:15:00,32.9,28.3,29.82,ENE,69,13.8,13.8,83,0.00,OVC,,0.00,229.0,WeatherDisplay:10.37,2013-03-29 19:15:00,
2013-03-29 11:20:00,33.1,28.5,29.82,ENE,57,11.5,11.5,83,0.00,OVC,,0.00,207.0,WeatherDisplay:10.37,2013-03-29 19:20:00,
2013-03-29 11:25:00,33.2,28.6,29.82,East,93,11.5,11.5,83,0.00,OVC,,0.00,186.0,WeatherDisplay:10.37,2013-03-29 19:25:00,
2013-03-29 11:30:00,33.3,28.7,29.82,East,79,11.5,11.5,83,0.00,OVC,,0.00,186.0,WeatherDisplay:10.37,2013-03-29 19:30:00,
2013-03-29 11:35:00,33.3,28.7,29.82,ENE,61,12.7,12.7,83,0.01,RA,,0.01,216.0,WeatherDisplay:10.37,2013-03-29 19:35:00,
2013-03-29 11:40:00,33.4,28.8,29.82,ENE,63,11.5,11.5,83,0.01,RA,,0.01,237.0,WeatherDisplay:10.37,2013-03-29 19:40:00,
2013-03-29 11:45:00,33.6,29.0,29.82,NE,44,9.2,9.2,83,0.01,OVC,,0.01,241.0,WeatherDisplay:10.37,2013-03-29 19:45:00,
2013-03-29 11:50:00,33.7,29.1,29.82,ENE,71,15.0,15.0,83,0.01,OVC,,0.01,272.0,WeatherDisplay:10.37,2013-03-29 19:50:00,
2013-03-29 11:55:00,34.0,29.4,29.83,ENE,73,11.0,11.0,83,0.01,OVC,,0.01,350.0,WeatherDisplay:10.37,2013-03-29 19:55:00,
2013-03-29 12:00:00,34.5,29.9,29.82,ENE,57,13.8,13.8,83,0.01,OVC,,0.01,378.0,WeatherDisplay:10.37,2013-03-29 20:00:00,
2013-03-29 12:05:00,34.6,29.7,29.83,ENE,58,15.0,15.0,82,0.01,OVC,,0.01,325.0,WeatherDisplay:10.37,2013-03-29 20:05:00,
2013-03-29 12:10:00,34.7,30.1,29.82,ENE,73,10.0,10.0,83,0.01,OVC,,0.01,325.0,WeatherDisplay:10.37,2013-03-29 20:10:00,
2013-03-29 12:15:00,34.7,29.8,29.82,North,5,15.0,15.0,82,0.02,RA,,0.02,394.0,WeatherDisplay:10.37,2013-03-29 20:15:00,
2013-03-29 12:20:00,34.9,30.0,29.82,East,82,10.4,10.4,82,0.02,RA,,0.02,434.0,WeatherDisplay:10.37,2013-03-29 20:20:00,
2013-03-29 12:25:00,35.2,30.3,29.82,NE,53,11.5,11.5,82,0.02,OVC,,0.02,348.0,WeatherDisplay:10.37,2013-03-29 20:25:00,
2013-03-29 12:30:00,35.3,30.1,29.83,NE,43,11.5,11.5,81,0.02,OVC,,0.02,295.0,WeatherDisplay:10.37,2013-03-29 20:30:00,
2013-03-29 12:35:00,35.2,30.0,29.82,NE,36,16.1,16.1,81,0.01,OVC,,0.02,295.0,WeatherDisplay:10.37,2013-03-29 20:35:00,
2013-03-29 12:40:00,35.0,30.1,29.83,NE,50,12.7,12.7,82,0.02,RA,,0.03,260.0,WeatherDisplay:10.37,2013-03-29 20:40:00,
2013-03-29 12:45:00,34.9,30.0,29.83,North,5,18.4,18.4,82,0.02,RA,,0.03,288.0,WeatherDisplay:10.37,2013-03-29 20:45:00,
2013-03-29 12:50:00,34.8,29.9,29.83,ENE,59,11.5,11.5,82,0.02,OVC,,0.03,325.0,WeatherDisplay:10.37,2013-03-29 20:50:00,
2013-03-29 12:55:00,34.8,30.2,29.83,East,80,13.8,13.8,83,0.02,OVC,,0.03,332.0,WeatherDisplay:10.37,2013-03-29 20:55:00,
2013-03-29 13:00:00,34.8,30.2,29.83,NE,36,18.4,18.4,83,0.02,OVC,,0.03,325.0,WeatherDisplay:10.37,2013-03-29 21:00:00,
2013-03-29 13:05:00,34.7,30.1,29.82,NE,39,9.2,9.2,83,0.03,RA,,0.04,285.0,WeatherDisplay:10.37,2013-03-29 21:05:00,
2013-03-29 13:10:00,34.6,30.3,29.82,NE,46,15.0,15.0,84,0.03,RA,,0.04,281.0,WeatherDisplay:10.37,2013-03-29 21:10:00,
2013-03-29 13:15:00,34.3,30.0,29.83,NE,49,15.0,15.0,84,0.02,OVC,,0.04,271.0,WeatherDisplay:10.37,2013-03-29 21:15:00,
2013-03-29 13:20:00,34.3,30.0,29.83,NE,38,12.7,12.7,84,0.02,OVC,,0.04,269.0,WeatherDisplay:10.37,2013-03-29 21:20:00,
2013-03-29 13:25:00,34.4,30.1,29.82,ENE,63,15.0,15.0,84,0.02,OVC,,0.04,272.0,WeatherDisplay:10.37,2013-03-29 21:25:00,
2013-03-29 13:30:00,34.5,30.2,29.83,East,92,17.3,17.3,84,0.02,OVC,,0.04,281.0,WeatherDisplay:10.37,2013-03-29 21:30:00,
2013-03-29 13:35:00,34.6,30.3,29.83,NE,50,11.5,11.5,84,0.02,OVC,,0.04,301.0,WeatherDisplay:10.37,2013-03-29 21:35:00,
2013-03-29 13:40:00,34.7,30.1,29.83,NE,55,11.5,11.5,83,0.01,OVC,,0.04,285.0,WeatherDisplay:10.37,2013-03-29 21:40:00,
2013-03-29 13:45:00,34.7,30.1,29.83,NE,51,17.3,17.3,83,0.02,RA,,0.05,239.0,WeatherDisplay:10.37,2013-03-29 21:45:00,
2013-03-29 13:50:00,34.6,30.3,29.83,East,80,11.5,11.5,84,0.02,RA,,0.05,234.0,WeatherDisplay:10.37,2013-03-29 21:50:00,
2013-03-29 13:55:00,34.6,30.3,29.83,NE,44,11.5,11.5,84,0.02,OVC,,0.05,229.0,WeatherDisplay:10.37,2013-03-29 21:55:00,
2013-03-29 14:00:00,34.6,30.3,29.83,East,91,12.7,12.7,84,0.02,OVC,,0.05,232.0,WeatherDisplay:10.37,2013-03-29 22:00:00,
2013-03-29 14:05:00,34.6,30.3,29.83,NE,51,15.0,15.0,84,0.01,OVC,,0.05,241.0,WeatherDisplay:10.37,2013-03-29 22:05:00,
2013-03-29 14:10:00,34.6,30.3,29.83,East,89,10.4,10.4,84,0.01,OVC,,0.05,258.0,WeatherDisplay:10.37,2013-03-29 22:10:00,
2013-03-29 14:15:00,34.7,30.4,29.83,ENE,71,11.5,11.5,84,0.01,OVC,,0.05,244.0,WeatherDisplay:10.37,2013-03-29 22:15:00,
2013-03-29 14:20:00,34.8,30.2,29.83,NE,39,9.0,9.0,83,0.01,OVC,,0.05,236.0,WeatherDisplay:10.37,2013-03-29 22:20:00,
2013-03-29 14:25:00,34.9,30.3,29.83,East,86,10.4,10.4,83,0.01,OVC,,0.05,248.0,WeatherDisplay:10.37,2013-03-29 22:25:00,
2013-03-29 14:30:00,35.1,30.5,29.83,East,94,11.5,11.5,83,0.01,OVC,,0.05,255.0,WeatherDisplay:10.37,2013-03-29 22:30:00,
2013-03-29 14:35:00,35.2,30.6,29.83,ENE,67,11.5,11.5,83,0.01,OVC,,0.05,265.0,WeatherDisplay:10.37,2013-03-29 22:35:00,
2013-03-29 14:40:00,35.3,30.7,29.83,ENE,62,9.2,9.2,83,0.01,OVC,,0.05,274.0,WeatherDisplay:10.37,2013-03-29 22:40:00,
2013-03-29 14:45:00,35.4,30.8,29.83,NNE,19,9.2,9.2,83,0.00,OVC,,0.05,276.0,WeatherDisplay:10.37,2013-03-29 22:45:00,
2013-03-29 14:50:00,35.5,30.8,29.83,ENE,68,10.4,10.4,83,0.00,OVC,,0.05,278.0,WeatherDisplay:10.37,2013-03-29 22:50:00,
2013-03-29 14:55:00,35.5,30.8,29.83,ENE,66,16.1,16.1,83,0.00,OVC,,0.05,276.0,WeatherDisplay:10.37,2013-03-29 22:55:00,
2013-03-29 15:00:00,35.6,30.9,29.83,NE,54,9.2,9.2,83,0.00,OVC,,0.05,288.0,WeatherDisplay:10.37,2013-03-29 23:00:00,
2013-03-29 15:05:00,35.6,30.9,29.83,NE,38,10.0,10.0,83,0.01,RA,,0.06,299.0,WeatherDisplay:10.37,2013-03-29 23:05:00,
2013-03-29 15:10:00,35.7,31.0,29.83,NE,53,10.4,10.4,83,0.01,RA,,0.06,311.0,WeatherDisplay:10.37,2013-03-29 23:10:00,
2013-03-29 15:15:00,35.9,31.2,29.83,NE,40,10.4,10.4,83,0.01,OVC,,0.06,318.0,WeatherDisplay:10.37,2013-03-29 23:15:00,
2013-03-29 15:20:00,36.0,31.0,29.83,NNE,16,9.0,9.0,82,0.01,OVC,,0.06,315.0,WeatherDisplay:10.37,2013-03-29 23:20:00,
2013-03-29 15:25:00,36.2,31.2,29.83,NE,51,11.5,11.5,82,0.01,OVC,,0.06,306.0,WeatherDisplay:10.37,2013-03-29 23:25:00,
2013-03-29 15:30:00,36.4,31.1,29.83,NE,53,15.0,15.0,81,0.01,OVC,,0.06,302.0,WeatherDisplay:10.37,2013-03-29 23:30:00,
2013-03-29 15:35:00,36.6,31.3,29.83,NE,41,13.0,13.0,81,0.01,OVC,,0.06,288.0,WeatherDisplay:10.37,2013-03-29 23:35:00,
2013-03-29 15:40:00,36.7,31.4,29.83,ENE,76,9.2,9.2,81,0.01,OVC,,0.06,265.0,WeatherDisplay:10.37,2013-03-29 23:40:00,
2013-03-29 15:45:00,36.8,31.5,29.83,NE,47,11.5,11.5,81,0.01,OVC,,0.06,264.0,WeatherDisplay:10.37,2013-03-29 23:45:00,
2013-03-29 15:50:00,36.9,31.6,29.83,NE,45,11.5,11.5,81,0.01,OVC,,0.06,260.0,WeatherDisplay:10.37,2013-03-29 23:50:00,
2013-03-29 15:55:00,37.0,31.7,29.83,NE,55,12.0,12.0,81,0.01,OVC,,0.06,251.0,WeatherDisplay:10.37,2013-03-29 23:55:00,
2013-03-29 16:00:00,37.0,31.7,29.83,NE,55,11.0,11.0,81,0.01,OVC,,0.06,264.0,WeatherDisplay:10.37,2013-03-30 00:00:00,
2013-03-29 16:05:00,37.0,31.4,29.83,NNE,33,11.5,11.5,80,0.00,OVC,,0.06,272.0,WeatherDisplay:10.37,2013-03-30 00:05:00,
2013-03-29 16:10:00,36.9,31.3,29.83,North,355,10.4,10.4,80,0.00,OVC,,0.06,285.0,WeatherDisplay:10.37,2013-03-30 00:10:00,
2013-03-29 16:15:00,36.9,31.6,29.83,NNE,13,12.0,12.0,81,0.00,OVC,,0.06,262.0,WeatherDisplay:10.37,2013-03-30 00:15:00,
2013-03-29 16:20:00,36.9,31.6,29.83,NE,50,10.4,10.4,81,0.00,OVC,,0.06,255.0,WeatherDisplay:10.37,2013-03-30 00:20:00,
2013-03-29 16:25:00,36.8,31.5,29.83,North,11,11.5,11.5,81,0.00,OVC,,0.06,250.0,WeatherDisplay:10.37,2013-03-30 00:25:00,
2013-03-29 16:30:00,36.8,31.8,29.83,NE,36,10.4,10.4,82,0.00,OVC,,0.06,239.0,WeatherDisplay:10.37,2013-03-30 00:30:00,
2013-03-29 16:35:00,36.7,31.4,29.83,NE,49,10.4,10.4,81,0.00,OVC,,0.06,223.0,WeatherDisplay:10.37,2013-03-30 00:35:00,
2013-03-29 16:47:00,36.4,31.4,29.84,NNE,28,15.0,15.0,82,0.00,RA,,0.06,237.0,WeatherDisplay:10.37,2013-03-30 00:47:00,
2013-03-29 17:02:00,36.7,31.7,29.84,NE,43,14.0,14.0,82,0.00,BKN,,0.06,209.0,WeatherDisplay:10.37,2013-03-30 01:02:00,
2013-03-29 17:07:00,36.7,31.7,29.83,NNE,18,12.7,12.7,82,0.00,OVC,,0.06,199.0,WeatherDisplay:10.37,2013-03-30 01:07:00,
2013-03-29 17:12:00,36.5,31.5,29.84,East,93,11.5,11.5,82,0.00,OVC,,0.06,220.0,WeatherDisplay:10.37,2013-03-30 01:12:00,
2013-03-29 17:17:00,36.5,31.5,29.84,ENE,63,9.2,9.2,82,0.00,OVC,,0.06,223.0,WeatherDisplay:10.37,2013-03-30 01:17:00,
2013-03-29 17:22:00,36.5,31.5,29.84,ENE,67,11.0,11.0,82,0.00,OVC,,0.06,218.0,WeatherDisplay:10.37,2013-03-30 01:22:00,
2013-03-29 17:27:00,36.6,31.6,29.84,NE,49,11.5,11.5,82,0.00,OVC,,0.06,213.0,WeatherDisplay:10.37,2013-03-30 01:27:00,
2013-03-29 17:32:00,36.6,31.6,29.84,NE,56,13.8,13.8,82,0.00,OVC,,0.06,202.0,WeatherDisplay:10.37,2013-03-30 01:32:00,
2013-03-29 17:37:00,36.6,31.6,29.84,ENE,60,13.0,13.0,82,0.00,OVC,,0.06,197.0,WeatherDisplay:10.37,2013-03-30 01:37:00,
2013-03-29 17:42:00,36.4,31.7,29.84,NE,48,15.0,15.0,83,0.00,OVC,,0.06,179.0,WeatherDisplay:10.37,2013-03-30 01:42:00,
2013-03-29 17:47:00,36.3,31.6,29.84,East,79,11.5,11.5,83,0.00,OVC,,0.06,162.0,WeatherDisplay:10.37,2013-03-30 01:47:00,
2013-03-29 17:52:00,36.3,31.6,29.84,NE,44,7.0,7.0,83,0.00,OVC,,0.06,174.0,WeatherDisplay:10.37,2013-03-30 01:52:00,
2013-03-29 17:57:00,36.3,31.6,29.84,NE,37,13.0,13.0,83,0.00,OVC,,0.06,158.0,WeatherDisplay:10.37,2013-03-30 01:57:00,
2013-03-29 18:02:00,36.2,31.5,29.84,ENE,76,11.5,11.5,83,0.00,OVC,,0.06,148.0,WeatherDisplay:10.37,2013-03-30 02:02:00,
2013-03-29 18:07:00,36.2,31.5,29.85,ENE,60,9.2,9.2,83,0.00,OVC,,0.06,149.0,WeatherDisplay:10.37,2013-03-30 02:07:00,
2013-03-29 18:12:00,36.2,31.8,29.85,ENE,59,13.8,13.8,84,0.00,OVC,,0.06,158.0,WeatherDisplay:10.37,2013-03-30 02:12:00,
2013-03-29 18:17:00,36.2,31.8,29.85,NE,35,10.4,10.4,84,0.00,OVC,,0.06,148.0,WeatherDisplay:10.37,2013-03-30 02:17:00,
2013-03-29 18:22:00,36.1,31.7,29.85,NE,54,8.1,8.1,84,0.00,OVC,,0.06,134.0,WeatherDisplay:10.37,2013-03-30 02:22:00,
2013-03-29 18:27:00,36.1,31.7,29.85,ENE,72,11.5,11.5,84,0.00,OVC,,0.06,113.0,WeatherDisplay:10.37,2013-03-30 02:27:00,
2013-03-29 18:32:00,36.1,31.7,29.85,NE,55,10.4,10.4,84,0.00,OVC,,0.06,98.0,WeatherDisplay:10.37,2013-03-30 02:32:00,
2013-03-29 18:37:00,36.0,31.6,29.85,NE,52,4.0,4.0,84,0.00,OVC,,0.06,91.0,WeatherDisplay:10.37,2013-03-30 02:37:00,
2013-03-29 18:42:00,36.0,31.6,29.85,NE,42,8.0,8.0,84,0.00,OVC,,0.06,90.0,WeatherDisplay:10.37,2013-03-30 02:42:00,
2013-03-29 18:47:00,35.9,31.8,29.85,NE,38,12.0,12.0,85,0.00,OVC,,0.06,97.0,WeatherDisplay:10.37,2013-03-30 02:47:00,
2013-03-29 18:52:00,35.8,31.7,29.85,ENE,61,8.1,8.1,85,0.00,OVC,,0.06,105.0,WeatherDisplay:10.37,2013-03-30 02:52:00,
2013-03-29 18:57:00,35.8,31.7,29.85,NNE,30,11.5,11.5,85,0.00,OVC,,0.06,120.0,WeatherDisplay:10.37,2013-03-30 02:57:00,
2013-03-29 19:02:00,35.8,31.7,29.85,NE,44,9.2,9.2,85,0.00,OVC,,0.06,116.0,WeatherDisplay:10.37,2013-03-30 03:02:00,
2013-03-29 19:07:00,35.8,31.7,29.85,NNE,19,11.5,11.5,85,0.00,OVC,,0.06,98.0,WeatherDisplay:10.37,2013-03-30 03:07:00,
2013-03-29 19:13:00,35.7,31.6,29.85,ENE,69,6.0,6.0,85,0.00,OVC,,0.06,76.0,WeatherDisplay:10.37,2013-03-30 03:13:00,
2013-03-29 19:18:00,35.7,31.6,29.85,NE,55,5.8,5.8,85,0.00,OVC,,0.06,58.0,WeatherDisplay:10.37,2013-03-30 03:18:00,
2013-03-29 19:23:00,35.6,31.5,29.86,NE,42,10.4,10.4,85,0.00,OVC,,0.06,47.0,WeatherDisplay:10.37,2013-03-30 03:23:00,
2013-03-29 19:28:00,35.4,31.3,29.86,NE,34,9.2,9.2,85,0.00,OVC,,0.06,39.0,WeatherDisplay:10.37,2013-03-30 03:28:00,
2013-03-29 19:33:00,35.2,31.4,29.86,NE,41,8.0,8.0,86,0.00,OVC,,0.06,35.0,WeatherDisplay:10.37,2013-03-30 03:33:00,
2013-03-29 19:38:00,35.1,31.3,29.86,ENE,57,5.8,5.8,86,0.00,OVC,,0.06,33.0,WeatherDisplay:10.37,2013-03-30 03:38:00,
2013-03-29 19:43:00,35.0,31.2,29.86,North,5,9.2,9.2,86,0.00,OVC,,0.06,33.0,WeatherDisplay:10.37,2013-03-30 03:43:00,
2013-03-29 19:48:00,34.9,31.4,29.86,NNE,16,10.4,10.4,87,0.00,OVC,,0.06,33.0,WeatherDisplay:10.37,2013-03-30 03:48:00,
2013-03-29 19:53:00,34.8,31.3,29.86,NE,52,10.4,10.4,87,0.00,OVC,,0.06,37.0,WeatherDisplay:10.37,2013-03-30 03:53:00,
2013-03-29 19:58:00,34.7,31.2,29.87,NE,44,12.7,12.7,87,0.00,OVC,,0.06,30.0,WeatherDisplay:10.37,2013-03-30 03:58:00,
2013-03-29 20:00:00,34.6,31.1,29.86,NE,42,8.1,8.1,87,0.00,OVC,,0.06,26.0,WeatherDisplay:10.37,2013-03-30 04:00:00,
2013-03-29 20:01:00,34.6,31.1,29.87,NE,54,8.1,8.1,87,0.00,OVC,,0.06,25.0,WeatherDisplay:10.37,2013-03-30 04:01:00,
2013-03-29 20:06:00,34.5,31.0,29.87,NE,52,8.1,8.1,87,0.00,OVC,,0.06,19.0,WeatherDisplay:10.37,2013-03-30 04:06:00,
2013-03-29 20:11:00,34.4,30.9,29.87,NE,46,8.1,8.1,87,0.00,OVC,,0.06,16.0,WeatherDisplay:10.37,2013-03-30 04:11:00,
2013-03-29 20:16:00,34.4,30.9,29.87,NE,42,6.9,6.9,87,0.00,OVC,,0.06,12.0,WeatherDisplay:10.37,2013-03-30 04:16:00,
2013-03-29 20:21:00,34.3,31.1,29.88,North,11,6.9,6.9,88,0.00,OVC,,0.06,11.0,WeatherDisplay:10.37,2013-03-30 04:21:00,
2013-03-29 20:26:00,34.3,31.1,29.88,East,91,6.9,6.9,88,0.00,OVC,,0.06,9.0,WeatherDisplay:10.37,2013-03-30 04:26:00,
2013-03-29 20:31:00,34.3,31.1,29.88,NNE,17,10.4,10.4,88,0.00,OVC,,0.06,7.0,WeatherDisplay:10.37,2013-03-30 04:31:00,
2013-03-29 20:36:00,34.2,31.0,29.87,NE,40,11.5,11.5,88,0.00,OVC,,0.06,7.0,WeatherDisplay:10.37,2013-03-30 04:36:00,
2013-03-29 20:41:00,34.1,30.9,29.87,NE,53,11.5,11.5,88,0.00,OVC,,0.06,5.0,WeatherDisplay:10.37,2013-03-30 04:41:00,
2013-03-29 20:46:00,34.1,30.9,29.88,NE,42,9.2,9.2,88,0.00,OVC,,0.06,0.0,WeatherDisplay:10.37,2013-03-30 04:46:00,
2013-03-29 20:51:00,34.0,30.8,29.88,NE,55,11.5,11.5,88,0.00,OVC,,0.06,0.0,WeatherDisplay:10.37,2013-03-30 04:51:00,
2013-03-29 20:56:00,34.0,30.8,29.88,NE,34,12.7,12.7,88,0.00,OVC,,0.06,0.0,WeatherDisplay:10.37,2013-03-30 04:56:00,
2013-03-29 21:01:00,34.0,31.1,29.89,NE,34,11.5,11.5,89,0.00,OVC,,0.06,0.0,WeatherDisplay:10.37,2013-03-30 05:01:00,
2013-03-29 21:06:00,33.9,31.0,29.89,East,86,8.1,8.1,89,0.00,OVC,,0.06,0.0,WeatherDisplay:10.37,2013-03-30 05:06:00,
2013-03-29 21:11:00,33.9,31.0,29.89,NE,55,9.2,9.2,89,0.00,OVC,,0.06,0.0,WeatherDisplay:10.37,2013-03-30 05:11:00,
2013-03-29 21:16:00,33.9,31.0,29.89,ENE,71,9.2,9.2,89,0.00,OVC,,0.06,0.0,WeatherDisplay:10.37,2013-03-30 05:16:00,
2013-03-29 21:21:00,33.8,30.9,29.90,NE,55,12.7,12.7,89,0.00,OVC,,0.06,0.0,WeatherDisplay:10.37,2013-03-30 05:21:00,
2013-03-29 21:26:00,33.8,30.9,29.90,ENE,76,3.5,3.5,89,0.00,OVC,,0.06,0.0,WeatherDisplay:10.37,2013-03-30 05:26:00,
2013-03-29 21:31:00,33.7,30.8,29.90,ENE,75,8.1,8.1,89,0.00,OVC,,0.06,0.0,WeatherDisplay:10.37,2013-03-30 05:31:00,
2013-03-29 21:36:00,33.7,31.1,29.90,NE,36,9.2,9.2,90,0.00,OVC,,0.06,0.0,WeatherDisplay:10.37,2013-03-30 05:36:00,
2013-03-29 21:41:00,33.7,31.1,29.91,ENE,71,9.2,9.2,90,0.00,OVC,,0.06,0.0,WeatherDisplay:10.37,2013-03-30 05:41:00,
2013-03-29 21:46:00,33.8,31.2,29.91,ENE,76,4.6,4.6,90,0.00,OVC,,0.06,0.0,WeatherDisplay:10.37,2013-03-30 05:46:00,
2013-03-29 21:51:00,33.8,32.8,29.91,East,81,8.1,8.1,96,0.00,OVC,,0.06,0.0,WeatherDisplay:10.37,2013-03-30 05:51:00,
2013-03-29 21:56:00,33.9,31.3,29.91,ENE,72,8.1,8.1,90,0.00,OVC,,0.06,0.0,WeatherDisplay:10.37,2013-03-30 05:56:00,
2013-03-29 22:01:00,33.9,31.3,29.91,ENE,62,9.2,9.2,90,0.00,OVC,,0.06,0.0,WeatherDisplay:10.37,2013-03-30 06:01:00,
2013-03-29 22:06:00,34.0,31.1,29.91,East,85,5.8,5.8,89,0.00,OVC,,0.06,0.0,WeatherDisplay:10.37,2013-03-30 06:06:00,
2013-03-29 22:11:00,34.0,31.1,29.91,NE,44,10.0,10.0,89,0.00,OVC,,0.06,0.0,WeatherDisplay:10.37,2013-03-30 06:11:00,
2013-03-29 22:16:00,34.1,31.2,29.91,NE,42,10.0,10.0,89,0.00,OVC,,0.06,0.0,WeatherDisplay:10.37,2013-03-30 06:16:00,
2013-03-29 22:21:00,34.1,31.2,29.91,NE,55,7.0,7.0,89,0.00,OVC,,0.06,0.0,WeatherDisplay:10.37,2013-03-30 06:21:00,
2013-03-29 22:26:00,34.1,31.2,29.92,NNE,31,4.6,4.6,89,0.00,OVC,,0.06,0.0,WeatherDisplay:10.37,2013-03-30 06:26:00,
2013-03-29 22:31:00,34.1,31.2,29.92,NE,46,11.5,11.5,89,0.00,OVC,,0.06,0.0,WeatherDisplay:10.37,2013-03-30 06:31:00,
2013-03-29 22:36:00,34.1,31.2,29.92,NNE,22,8.0,8.0,89,0.00,OVC,,0.06,0.0,WeatherDisplay:10.37,2013-03-30 06:36:00,
2013-03-29 22:41:00,34.1,31.2,29.93,ENE,72,8.1,8.1,89,0.00,OVC,,0.06,0.0,WeatherDisplay:10.37,2013-03-30 06:41:00,
2013-03-29 22:46:00,34.1,31.2,29.93,NNE,25,5.8,5.8,89,0.00,OVC,,0.06,0.0,WeatherDisplay:10.37,2013-03-30 06:46:00,
2013-03-29 22:52:00,34.1,31.2,29.93,NE,34,7.0,7.0,89,0.00,OVC,,0.06,0.0,WeatherDisplay:10.37,2013-03-30 06:52:00,
2013-03-29 22:57:00,34.1,31.2,29.93,ENE,62,9.2,9.2,89,0.00,OVC,,0.06,0.0,WeatherDisplay:10.37,2013-03-30 06:57:00,
2013-03-29 23:02:00,34.1,31.5,29.93,NE,46,8.1,8.1,90,0.00,OVC,,0.06,0.0,WeatherDisplay:10.37,2013-03-30 07:02:00,
2013-03-29 23:07:00,34.0,31.4,29.93,ENE,76,7.0,7.0,90,0.00,OVC,,0.06,0.0,WeatherDisplay:10.37,2013-03-30 07:07:00,
2013-03-29 23:12:00,34.0,31.4,29.93,ENE,74,8.1,8.1,90,0.00,OVC,,0.06,0.0,WeatherDisplay:10.37,2013-03-30 07:12:00,
2013-03-29 23:17:00,34.0,31.4,29.94,ENE,74,8.1,8.1,90,0.00,OVC,,0.06,0.0,WeatherDisplay:10.37,2013-03-30 07:17:00,
2013-03-29 23:22:00,33.9,31.3,29.94,NE,56,5.8,5.8,90,0.00,OVC,,0.06,0.0,WeatherDisplay:10.37,2013-03-30 07:22:00,
2013-03-29 23:27:00,33.9,31.3,29.94,ENE,76,6.9,6.9,90,0.00,OVC,,0.06,0.0,WeatherDisplay:10.37,2013-03-30 07:27:00,
2013-03-29 23:32:00,33.8,31.2,29.94,ENE,78,6.9,6.9,90,0.00,OVC,,0.06,0.0,WeatherDisplay:10.37,2013-03-30 07:32:00,
2013-03-29 23:37:00,33.8,31.2,29.94,NNE,26,6.9,6.9,90,0.00,OVC,,0.06,0.0,WeatherDisplay:10.37,2013-03-30 07:37:00,
2013-03-29 23:42:00,33.7,31.1,29.95,NE,36,5.8,5.8,90,0.00,OVC,,0.06,0.0,WeatherDisplay:10.37,2013-03-30 07:42:00,
2013-03-29 23:47:00,33.7,31.1,29.95,East,90,5.0,5.0,90,0.00,OVC,,0.06,0.0,WeatherDisplay:10.37,2013-03-30 07:47:00,
2013-03-29 23:52:00,33.6,31.0,29.95,NE,49,3.5,3.5,90,0.00,OVC,,0.06,0.0,WeatherDisplay:10.37,2013-03-30 07:52:00,
2013-03-29 23:57:00,33.5,30.9,29.95,NE,55,3.5,3.5,90,0.00,OVC,,0.06,0.0,WeatherDisplay:10.37,2013-03-30 07:57:00,